sensor_id;sensor_type;location;lat;lon;timestamp;P1;durP1;ratioP1;P2;durP2;ratioP2
11090;SDS011;5599;52.210;21.046;2022-07-23T00:00:05;9.85;;;8.00;;
11090;SDS011;5599;52.210;21.046;2022-07-23T00:02:35;13.88;;;8.32;;
11090;SDS011;5599;52.210;21.046;2022-07-23T00:05:05;9.70;;;8.00;;
11090;SDS011;5599;52.210;21.046;2022-07-23T00:07:36;10.35;;;7.68;;
11090;SDS011;5599;52.210;21.046;2022-07-23T00:10:05;10.63;;;9.13;;
11090;SDS011;5599;52.210;21.046;2022-07-23T00:12:35;9.65;;;7.93;;
11090;SDS011;5599;52.210;21.046;2022-07-23T00:15:18;10.80;;;8.20;;
11090;SDS011;5599;52.210;21.046;2022-07-23T00:17:47;9.38;;;7.78;;
11090;SDS011;5599;52.210;21.046;2022-07-23T00:20:16;12.25;;;8.07;;
11090;SDS011;5599;52.210;21.046;2022-07-23T00:22:47;9.18;;;8.27;;
11090;SDS011;5599;52.210;21.046;2022-07-23T00:25:17;9.00;;;7.60;;
11090;SDS011;5599;52.210;21.046;2022-07-23T00:27:56;10.63;;;8.05;;
11090;SDS011;5599;52.210;21.046;2022-07-23T00:30:26;9.25;;;8.35;;
11090;SDS011;5599;52.210;21.046;2022-07-23T00:32:58;8.57;;;7.32;;
11090;SDS011;5599;52.210;21.046;2022-07-23T00:35:31;11.07;;;8.40;;
11090;SDS011;5599;52.210;21.046;2022-07-23T00:38:02;8.73;;;7.82;;
11090;SDS011;5599;52.210;21.046;2022-07-23T00:40:33;9.18;;;8.23;;
11090;SDS011;5599;52.210;21.046;2022-07-23T00:43:02;11.55;;;8.57;;
11090;SDS011;5599;52.210;21.046;2022-07-23T00:45:32;10.55;;;8.98;;
11090;SDS011;5599;52.210;21.046;2022-07-23T00:48:01;9.45;;;8.57;;
11090;SDS011;5599;52.210;21.046;2022-07-23T00:50:30;9.43;;;8.50;;
11090;SDS011;5599;52.210;21.046;2022-07-23T00:52:59;11.40;;;9.02;;
11090;SDS011;5599;52.210;21.046;2022-07-23T00:55:30;11.90;;;9.45;;
11090;SDS011;5599;52.210;21.046;2022-07-23T00:58:00;10.45;;;9.35;;
11090;SDS011;5599;52.210;21.046;2022-07-23T01:00:30;18.67;;;9.40;;
11090;SDS011;5599;52.210;21.046;2022-07-23T01:03:00;9.85;;;8.85;;
11090;SDS011;5599;52.210;21.046;2022-07-23T01:05:29;14.77;;;8.80;;
11090;SDS011;5599;52.210;21.046;2022-07-23T01:07:58;10.82;;;9.60;;
11090;SDS011;5599;52.210;21.046;2022-07-23T01:10:28;11.13;;;9.00;;
11090;SDS011;5599;52.210;21.046;2022-07-23T01:13:02;11.55;;;9.10;;
11090;SDS011;5599;52.210;21.046;2022-07-23T01:15:33;9.85;;;8.85;;
11090;SDS011;5599;52.210;21.046;2022-07-23T01:18:03;9.55;;;8.27;;
11090;SDS011;5599;52.210;21.046;2022-07-23T01:20:35;11.88;;;8.88;;
11090;SDS011;5599;52.210;21.046;2022-07-23T01:23:06;10.43;;;9.05;;
11090;SDS011;5599;52.210;21.046;2022-07-23T01:25:46;9.35;;;8.45;;
11090;SDS011;5599;52.210;21.046;2022-07-23T01:28:16;8.88;;;8.07;;
11090;SDS011;5599;52.210;21.046;2022-07-23T01:30:45;9.30;;;8.32;;
11090;SDS011;5599;52.210;21.046;2022-07-23T01:33:15;9.18;;;8.27;;
11090;SDS011;5599;52.210;21.046;2022-07-23T01:35:44;9.23;;;8.15;;
11090;SDS011;5599;52.210;21.046;2022-07-23T01:38:20;9.35;;;8.55;;
11090;SDS011;5599;52.210;21.046;2022-07-23T01:40:49;10.10;;;8.77;;
11090;SDS011;5599;52.210;21.046;2022-07-23T01:43:29;9.88;;;8.93;;
11090;SDS011;5599;52.210;21.046;2022-07-23T01:45:59;9.98;;;8.98;;
11090;SDS011;5599;52.210;21.046;2022-07-23T01:48:33;10.07;;;8.98;;
11090;SDS011;5599;52.210;21.046;2022-07-23T01:51:21;11.57;;;9.18;;
11090;SDS011;5599;52.210;21.046;2022-07-23T01:54:03;9.65;;;8.75;;
11090;SDS011;5599;52.210;21.046;2022-07-23T01:56:33;9.70;;;8.65;;
11090;SDS011;5599;52.210;21.046;2022-07-23T01:59:02;8.82;;;8.02;;
11090;SDS011;5599;52.210;21.046;2022-07-23T02:01:31;9.85;;;8.82;;
11090;SDS011;5599;52.210;21.046;2022-07-23T02:04:02;9.57;;;8.73;;
11090;SDS011;5599;52.210;21.046;2022-07-23T02:06:31;9.20;;;8.13;;
11090;SDS011;5599;52.210;21.046;2022-07-23T02:09:01;9.98;;;8.95;;
11090;SDS011;5599;52.210;21.046;2022-07-23T02:11:32;10.13;;;9.23;;
11090;SDS011;5599;52.210;21.046;2022-07-23T02:14:01;9.98;;;8.77;;
11090;SDS011;5599;52.210;21.046;2022-07-23T02:16:31;10.43;;;8.45;;
11090;SDS011;5599;52.210;21.046;2022-07-23T02:19:01;11.88;;;8.30;;
11090;SDS011;5599;52.210;21.046;2022-07-23T02:21:30;11.25;;;8.57;;
11090;SDS011;5599;52.210;21.046;2022-07-23T02:24:00;10.65;;;8.98;;
11090;SDS011;5599;52.210;21.046;2022-07-23T02:26:29;9.98;;;8.63;;
11090;SDS011;5599;52.210;21.046;2022-07-23T02:29:02;10.52;;;9.45;;
11090;SDS011;5599;52.210;21.046;2022-07-23T02:31:32;10.05;;;9.02;;
11090;SDS011;5599;52.210;21.046;2022-07-23T02:34:01;9.43;;;8.63;;
11090;SDS011;5599;52.210;21.046;2022-07-23T02:36:31;10.30;;;9.07;;
11090;SDS011;5599;52.210;21.046;2022-07-23T02:39:03;9.88;;;8.95;;
11090;SDS011;5599;52.210;21.046;2022-07-23T02:41:33;9.00;;;8.18;;
11090;SDS011;5599;52.210;21.046;2022-07-23T02:44:04;10.20;;;9.05;;
11090;SDS011;5599;52.210;21.046;2022-07-23T02:46:35;10.43;;;9.45;;
11090;SDS011;5599;52.210;21.046;2022-07-23T02:49:05;9.70;;;8.82;;
11090;SDS011;5599;52.210;21.046;2022-07-23T02:51:34;9.70;;;8.82;;
11090;SDS011;5599;52.210;21.046;2022-07-23T02:54:05;12.27;;;9.27;;
11090;SDS011;5599;52.210;21.046;2022-07-23T02:56:35;9.80;;;8.82;;
11090;SDS011;5599;52.210;21.046;2022-07-23T02:59:05;9.77;;;8.88;;
11090;SDS011;5599;52.210;21.046;2022-07-23T03:01:35;9.80;;;8.90;;
11090;SDS011;5599;52.210;21.046;2022-07-23T03:04:05;10.70;;;9.55;;
11090;SDS011;5599;52.210;21.046;2022-07-23T03:06:34;10.68;;;9.60;;
11090;SDS011;5599;52.210;21.046;2022-07-23T03:09:03;10.20;;;9.20;;
11090;SDS011;5599;52.210;21.046;2022-07-23T03:11:33;11.35;;;9.70;;
11090;SDS011;5599;52.210;21.046;2022-07-23T03:14:02;9.93;;;9.05;;
11090;SDS011;5599;52.210;21.046;2022-07-23T03:16:33;10.32;;;9.43;;
11090;SDS011;5599;52.210;21.046;2022-07-23T03:19:02;10.85;;;9.85;;
11090;SDS011;5599;52.210;21.046;2022-07-23T03:21:32;12.65;;;9.45;;
11090;SDS011;5599;52.210;21.046;2022-07-23T03:24:06;12.88;;;9.77;;
11090;SDS011;5599;52.210;21.046;2022-07-23T03:26:36;10.60;;;9.55;;
11090;SDS011;5599;52.210;21.046;2022-07-23T03:29:07;10.82;;;9.52;;
11090;SDS011;5599;52.210;21.046;2022-07-23T03:31:37;11.20;;;10.02;;
11090;SDS011;5599;52.210;21.046;2022-07-23T03:34:07;12.50;;;9.93;;
11090;SDS011;5599;52.210;21.046;2022-07-23T03:36:36;10.43;;;9.43;;
11090;SDS011;5599;52.210;21.046;2022-07-23T03:39:06;10.55;;;9.52;;
11090;SDS011;5599;52.210;21.046;2022-07-23T03:41:40;11.35;;;10.20;;
11090;SDS011;5599;52.210;21.046;2022-07-23T03:44:10;11.38;;;9.48;;
11090;SDS011;5599;52.210;21.046;2022-07-23T03:46:42;10.18;;;9.27;;
11090;SDS011;5599;52.210;21.046;2022-07-23T03:49:12;9.82;;;8.93;;
11090;SDS011;5599;52.210;21.046;2022-07-23T03:51:41;10.32;;;9.30;;
11090;SDS011;5599;52.210;21.046;2022-07-23T03:54:10;11.00;;;9.88;;
11090;SDS011;5599;52.210;21.046;2022-07-23T03:56:39;9.88;;;8.98;;
11090;SDS011;5599;52.210;21.046;2022-07-23T03:59:09;11.13;;;8.70;;
11090;SDS011;5599;52.210;21.046;2022-07-23T04:01:38;9.93;;;9.02;;
11090;SDS011;5599;52.210;21.046;2022-07-23T04:04:10;9.95;;;8.77;;
11090;SDS011;5599;52.210;21.046;2022-07-23T04:06:40;11.05;;;9.40;;
11090;SDS011;5599;52.210;21.046;2022-07-23T04:09:09;11.10;;;9.40;;
11090;SDS011;5599;52.210;21.046;2022-07-23T04:11:39;9.95;;;9.10;;
11090;SDS011;5599;52.210;21.046;2022-07-23T04:14:08;10.75;;;9.20;;
11090;SDS011;5599;52.210;21.046;2022-07-23T04:16:37;10.77;;;8.80;;
11090;SDS011;5599;52.210;21.046;2022-07-23T04:19:06;10.13;;;9.23;;
11090;SDS011;5599;52.210;21.046;2022-07-23T04:21:50;10.10;;;9.05;;
11090;SDS011;5599;52.210;21.046;2022-07-23T04:24:19;9.52;;;8.73;;
11090;SDS011;5599;52.210;21.046;2022-07-23T04:26:48;10.48;;;9.38;;
11090;SDS011;5599;52.210;21.046;2022-07-23T04:29:18;10.90;;;9.80;;
11090;SDS011;5599;52.210;21.046;2022-07-23T04:31:47;9.23;;;8.50;;
11090;SDS011;5599;52.210;21.046;2022-07-23T04:34:17;10.10;;;9.05;;
11090;SDS011;5599;52.210;21.046;2022-07-23T04:36:46;12.07;;;9.27;;
11090;SDS011;5599;52.210;21.046;2022-07-23T04:39:17;10.23;;;9.10;;
11090;SDS011;5599;52.210;21.046;2022-07-23T04:41:46;12.98;;;9.18;;
11090;SDS011;5599;52.210;21.046;2022-07-23T04:44:16;9.63;;;8.73;;
11090;SDS011;5599;52.210;21.046;2022-07-23T04:46:46;9.63;;;8.85;;
11090;SDS011;5599;52.210;21.046;2022-07-23T04:49:16;13.25;;;9.45;;
11090;SDS011;5599;52.210;21.046;2022-07-23T04:51:46;11.15;;;8.93;;
11090;SDS011;5599;52.210;21.046;2022-07-23T04:54:15;10.43;;;9.43;;
11090;SDS011;5599;52.210;21.046;2022-07-23T04:56:46;10.07;;;9.18;;
11090;SDS011;5599;52.210;21.046;2022-07-23T04:59:16;9.70;;;8.68;;
11090;SDS011;5599;52.210;21.046;2022-07-23T05:01:49;10.90;;;9.10;;
11090;SDS011;5599;52.210;21.046;2022-07-23T05:04:18;10.43;;;9.43;;
11090;SDS011;5599;52.210;21.046;2022-07-23T05:06:48;10.30;;;9.40;;
11090;SDS011;5599;52.210;21.046;2022-07-23T05:09:18;11.88;;;8.75;;
11090;SDS011;5599;52.210;21.046;2022-07-23T05:11:48;10.15;;;9.07;;
11090;SDS011;5599;52.210;21.046;2022-07-23T05:14:17;9.82;;;8.93;;
11090;SDS011;5599;52.210;21.046;2022-07-23T05:16:46;10.32;;;9.38;;
11090;SDS011;5599;52.210;21.046;2022-07-23T05:19:21;10.27;;;8.68;;
11090;SDS011;5599;52.210;21.046;2022-07-23T05:21:51;10.15;;;9.35;;
11090;SDS011;5599;52.210;21.046;2022-07-23T05:24:22;10.00;;;9.23;;
11090;SDS011;5599;52.210;21.046;2022-07-23T05:26:51;10.13;;;9.10;;
11090;SDS011;5599;52.210;21.046;2022-07-23T05:29:21;12.68;;;9.93;;
11090;SDS011;5599;52.210;21.046;2022-07-23T05:31:50;9.75;;;8.98;;
11090;SDS011;5599;52.210;21.046;2022-07-23T05:34:21;9.90;;;8.40;;
11090;SDS011;5599;52.210;21.046;2022-07-23T05:36:50;9.65;;;8.95;;
11090;SDS011;5599;52.210;21.046;2022-07-23T05:39:21;9.70;;;8.77;;
11090;SDS011;5599;52.210;21.046;2022-07-23T05:41:50;9.00;;;8.10;;
11090;SDS011;5599;52.210;21.046;2022-07-23T05:44:20;9.85;;;8.88;;
11090;SDS011;5599;52.210;21.046;2022-07-23T05:46:49;9.40;;;8.55;;
11090;SDS011;5599;52.210;21.046;2022-07-23T05:49:20;9.82;;;8.93;;
11090;SDS011;5599;52.210;21.046;2022-07-23T05:52:17;9.43;;;8.18;;
11090;SDS011;5599;52.210;21.046;2022-07-23T05:55:17;9.27;;;8.57;;
11090;SDS011;5599;52.210;21.046;2022-07-23T05:57:46;8.77;;;7.53;;
11090;SDS011;5599;52.210;21.046;2022-07-23T06:00:16;8.77;;;8.07;;
11090;SDS011;5599;52.210;21.046;2022-07-23T06:02:46;8.50;;;7.80;;
11090;SDS011;5599;52.210;21.046;2022-07-23T06:05:22;9.48;;;8.30;;
11090;SDS011;5599;52.210;21.046;2022-07-23T06:07:54;8.45;;;7.57;;
11090;SDS011;5599;52.210;21.046;2022-07-23T06:10:26;8.98;;;8.10;;
11090;SDS011;5599;52.210;21.046;2022-07-23T06:12:55;9.05;;;8.23;;
11090;SDS011;5599;52.210;21.046;2022-07-23T06:15:29;9.40;;;7.00;;
11090;SDS011;5599;52.210;21.046;2022-07-23T06:17:58;9.65;;;8.02;;
11090;SDS011;5599;52.210;21.046;2022-07-23T06:20:27;9.68;;;8.77;;
11090;SDS011;5599;52.210;21.046;2022-07-23T06:22:57;9.65;;;8.43;;
11090;SDS011;5599;52.210;21.046;2022-07-23T06:25:29;8.57;;;7.88;;
11090;SDS011;5599;52.210;21.046;2022-07-23T06:27:58;9.02;;;8.18;;
11090;SDS011;5599;52.210;21.046;2022-07-23T06:30:27;8.05;;;7.38;;
11090;SDS011;5599;52.210;21.046;2022-07-23T06:32:56;8.32;;;7.63;;
11090;SDS011;5599;52.210;21.046;2022-07-23T06:35:25;7.55;;;6.75;;
11090;SDS011;5599;52.210;21.046;2022-07-23T06:37:55;8.30;;;7.38;;
11090;SDS011;5599;52.210;21.046;2022-07-23T06:40:24;7.75;;;6.97;;
11090;SDS011;5599;52.210;21.046;2022-07-23T06:42:55;8.07;;;7.07;;
11090;SDS011;5599;52.210;21.046;2022-07-23T06:45:26;7.55;;;6.85;;
11090;SDS011;5599;52.210;21.046;2022-07-23T06:47:56;8.15;;;7.30;;
11090;SDS011;5599;52.210;21.046;2022-07-23T06:50:26;8.18;;;7.47;;
11090;SDS011;5599;52.210;21.046;2022-07-23T06:52:55;8.60;;;7.80;;
11090;SDS011;5599;52.210;21.046;2022-07-23T06:55:25;10.13;;;7.32;;
11090;SDS011;5599;52.210;21.046;2022-07-23T06:57:55;7.97;;;7.22;;
11090;SDS011;5599;52.210;21.046;2022-07-23T07:00:25;8.52;;;6.90;;
11090;SDS011;5599;52.210;21.046;2022-07-23T07:02:54;7.63;;;6.95;;
11090;SDS011;5599;52.210;21.046;2022-07-23T07:05:23;7.55;;;6.88;;
11090;SDS011;5599;52.210;21.046;2022-07-23T07:07:54;7.75;;;6.90;;
11090;SDS011;5599;52.210;21.046;2022-07-23T07:10:23;6.57;;;6.07;;
11090;SDS011;5599;52.210;21.046;2022-07-23T07:12:52;7.20;;;6.60;;
11090;SDS011;5599;52.210;21.046;2022-07-23T07:15:23;6.95;;;6.35;;
11090;SDS011;5599;52.210;21.046;2022-07-23T07:17:52;7.22;;;6.28;;
11090;SDS011;5599;52.210;21.046;2022-07-23T07:20:22;7.75;;;7.05;;
11090;SDS011;5599;52.210;21.046;2022-07-23T07:22:51;7.40;;;6.75;;
11090;SDS011;5599;52.210;21.046;2022-07-23T07:25:20;8.10;;;6.53;;
11090;SDS011;5599;52.210;21.046;2022-07-23T07:27:49;11.75;;;7.35;;
11090;SDS011;5599;52.210;21.046;2022-07-23T07:30:19;7.13;;;6.53;;
11090;SDS011;5599;52.210;21.046;2022-07-23T07:32:50;7.28;;;6.70;;
11090;SDS011;5599;52.210;21.046;2022-07-23T07:35:23;6.78;;;6.20;;
11090;SDS011;5599;52.210;21.046;2022-07-23T07:37:52;7.28;;;6.45;;
11090;SDS011;5599;52.210;21.046;2022-07-23T07:40:22;7.40;;;6.70;;
11090;SDS011;5599;52.210;21.046;2022-07-23T07:42:57;7.82;;;6.93;;
11090;SDS011;5599;52.210;21.046;2022-07-23T07:45:27;10.70;;;7.22;;
11090;SDS011;5599;52.210;21.046;2022-07-23T07:47:58;9.75;;;6.82;;
11090;SDS011;5599;52.210;21.046;2022-07-23T07:50:27;7.40;;;6.90;;
11090;SDS011;5599;52.210;21.046;2022-07-23T07:52:56;7.47;;;6.63;;
11090;SDS011;5599;52.210;21.046;2022-07-23T07:55:26;8.13;;;7.32;;
11090;SDS011;5599;52.210;21.046;2022-07-23T07:57:56;7.35;;;6.75;;
11090;SDS011;5599;52.210;21.046;2022-07-23T08:00:28;8.60;;;6.93;;
11090;SDS011;5599;52.210;21.046;2022-07-23T08:03:00;7.10;;;6.50;;
11090;SDS011;5599;52.210;21.046;2022-07-23T08:05:30;7.22;;;6.63;;
11090;SDS011;5599;52.210;21.046;2022-07-23T08:07:59;10.45;;;7.57;;
11090;SDS011;5599;52.210;21.046;2022-07-23T08:10:29;7.30;;;6.70;;
11090;SDS011;5599;52.210;21.046;2022-07-23T08:12:59;7.25;;;6.55;;
11090;SDS011;5599;52.210;21.046;2022-07-23T08:15:29;10.45;;;6.63;;
11090;SDS011;5599;52.210;21.046;2022-07-23T08:18:00;8.15;;;7.25;;
11090;SDS011;5599;52.210;21.046;2022-07-23T08:20:29;7.63;;;6.93;;
11090;SDS011;5599;52.210;21.046;2022-07-23T08:22:59;7.65;;;6.95;;
11090;SDS011;5599;52.210;21.046;2022-07-23T08:25:33;9.07;;;7.60;;
11090;SDS011;5599;52.210;21.046;2022-07-23T08:28:04;7.88;;;7.13;;
11090;SDS011;5599;52.210;21.046;2022-07-23T08:30:35;8.48;;;6.30;;
11090;SDS011;5599;52.210;21.046;2022-07-23T08:33:07;7.90;;;7.20;;
11090;SDS011;5599;52.210;21.046;2022-07-23T08:35:58;7.75;;;6.95;;
11090;SDS011;5599;52.210;21.046;2022-07-23T08:38:30;7.55;;;6.95;;
11090;SDS011;5599;52.210;21.046;2022-07-23T08:41:00;7.28;;;6.75;;
11090;SDS011;5599;52.210;21.046;2022-07-23T08:43:32;9.73;;;7.50;;
11090;SDS011;5599;52.210;21.046;2022-07-23T08:46:03;8.18;;;7.45;;
11090;SDS011;5599;52.210;21.046;2022-07-23T08:48:34;7.25;;;6.75;;
11090;SDS011;5599;52.210;21.046;2022-07-23T08:51:06;7.18;;;6.60;;
11090;SDS011;5599;52.210;21.046;2022-07-23T08:53:37;7.38;;;6.68;;
11090;SDS011;5599;52.210;21.046;2022-07-23T08:56:08;7.93;;;7.15;;
11090;SDS011;5599;52.210;21.046;2022-07-23T08:58:37;7.70;;;6.95;;
11090;SDS011;5599;52.210;21.046;2022-07-23T09:01:06;8.02;;;6.60;;
11090;SDS011;5599;52.210;21.046;2022-07-23T09:03:37;6.85;;;6.40;;
11090;SDS011;5599;52.210;21.046;2022-07-23T09:06:07;7.43;;;6.82;;
11090;SDS011;5599;52.210;21.046;2022-07-23T09:08:37;8.40;;;7.10;;
11090;SDS011;5599;52.210;21.046;2022-07-23T09:11:07;7.00;;;6.30;;
11090;SDS011;5599;52.210;21.046;2022-07-23T09:13:39;7.18;;;6.50;;
11090;SDS011;5599;52.210;21.046;2022-07-23T09:16:12;7.43;;;6.82;;
11090;SDS011;5599;52.210;21.046;2022-07-23T09:18:45;7.43;;;6.72;;
11090;SDS011;5599;52.210;21.046;2022-07-23T09:21:22;19.85;;;7.82;;
11090;SDS011;5599;52.210;21.046;2022-07-23T09:23:56;9.13;;;7.10;;
11090;SDS011;5599;52.210;21.046;2022-07-23T09:26:30;7.00;;;6.40;;
11090;SDS011;5599;52.210;21.046;2022-07-23T09:29:02;6.40;;;5.80;;
11090;SDS011;5599;52.210;21.046;2022-07-23T09:31:43;6.50;;;5.53;;
11090;SDS011;5599;52.210;21.046;2022-07-23T09:34:21;7.55;;;6.85;;
11090;SDS011;5599;52.210;21.046;2022-07-23T09:36:51;6.70;;;6.20;;
11090;SDS011;5599;52.210;21.046;2022-07-23T09:39:26;6.65;;;6.07;;
11090;SDS011;5599;52.210;21.046;2022-07-23T09:41:58;8.35;;;6.43;;
11090;SDS011;5599;52.210;21.046;2022-07-23T09:44:42;6.35;;;5.75;;
11090;SDS011;5599;52.210;21.046;2022-07-23T09:47:14;6.82;;;6.20;;
11090;SDS011;5599;52.210;21.046;2022-07-23T09:49:58;7.53;;;5.93;;
11090;SDS011;5599;52.210;21.046;2022-07-23T09:52:31;11.35;;;6.75;;
11090;SDS011;5599;52.210;21.046;2022-07-23T09:55:03;6.50;;;5.93;;
11090;SDS011;5599;52.210;21.046;2022-07-23T09:57:34;7.43;;;6.68;;
11090;SDS011;5599;52.210;21.046;2022-07-23T10:00:04;6.45;;;5.88;;
11090;SDS011;5599;52.210;21.046;2022-07-23T10:02:35;6.25;;;5.75;;
11090;SDS011;5599;52.210;21.046;2022-07-23T10:05:30;6.35;;;5.85;;
11090;SDS011;5599;52.210;21.046;2022-07-23T10:08:20;8.65;;;6.35;;
11090;SDS011;5599;52.210;21.046;2022-07-23T10:11:10;6.75;;;5.80;;
11090;SDS011;5599;52.210;21.046;2022-07-23T10:13:59;6.68;;;5.97;;
11090;SDS011;5599;52.210;21.046;2022-07-23T10:16:54;19.48;;;7.50;;
11090;SDS011;5599;52.210;21.046;2022-07-23T10:19:24;6.80;;;6.05;;
11090;SDS011;5599;52.210;21.046;2022-07-23T10:21:57;7.22;;;6.55;;
11090;SDS011;5599;52.210;21.046;2022-07-23T10:24:38;6.97;;;6.28;;
11090;SDS011;5599;52.210;21.046;2022-07-23T10:27:22;6.90;;;6.30;;
11090;SDS011;5599;52.210;21.046;2022-07-23T10:30:09;7.85;;;5.90;;
11090;SDS011;5599;52.210;21.046;2022-07-23T10:32:45;6.65;;;6.13;;
11090;SDS011;5599;52.210;21.046;2022-07-23T10:35:28;6.85;;;6.05;;
11090;SDS011;5599;52.210;21.046;2022-07-23T10:38:10;6.90;;;6.20;;
11090;SDS011;5599;52.210;21.046;2022-07-23T10:40:55;7.53;;;6.43;;
11090;SDS011;5599;52.210;21.046;2022-07-23T10:43:29;7.15;;;6.50;;
11090;SDS011;5599;52.210;21.046;2022-07-23T10:54:46;6.38;;;5.72;;
11090;SDS011;5599;52.210;21.046;2022-07-23T10:57:18;7.18;;;5.88;;
11090;SDS011;5599;52.210;21.046;2022-07-23T11:02:52;7.82;;;6.05;;
11090;SDS011;5599;52.210;21.046;2022-07-23T11:05:23;7.25;;;6.55;;
11090;SDS011;5599;52.210;21.046;2022-07-23T11:10:55;7.05;;;6.35;;
11090;SDS011;5599;52.210;21.046;2022-07-23T11:13:37;7.28;;;6.68;;
11090;SDS011;5599;52.210;21.046;2022-07-23T11:16:19;7.13;;;6.45;;
11090;SDS011;5599;52.210;21.046;2022-07-23T11:18:55;6.93;;;6.20;;
11090;SDS011;5599;52.210;21.046;2022-07-23T11:21:44;6.70;;;6.10;;
11090;SDS011;5599;52.210;21.046;2022-07-23T11:24:21;6.95;;;6.35;;
11090;SDS011;5599;52.210;21.046;2022-07-23T11:26:54;11.02;;;6.95;;
11090;SDS011;5599;52.210;21.046;2022-07-23T11:29:37;7.07;;;6.38;;
11090;SDS011;5599;52.210;21.046;2022-07-23T11:32:24;7.38;;;6.40;;
11090;SDS011;5599;52.210;21.046;2022-07-23T11:35:03;6.68;;;6.00;;
11090;SDS011;5599;52.210;21.046;2022-07-23T11:37:51;7.18;;;6.57;;
11090;SDS011;5599;52.210;21.046;2022-07-23T11:40:25;7.80;;;7.05;;
11090;SDS011;5599;52.210;21.046;2022-07-23T11:42:57;6.45;;;5.93;;
11090;SDS011;5599;52.210;21.046;2022-07-23T11:45:32;7.43;;;6.75;;
11090;SDS011;5599;52.210;21.046;2022-07-23T11:48:02;8.13;;;6.50;;
11090;SDS011;5599;52.210;21.046;2022-07-23T11:50:34;7.05;;;6.03;;
11090;SDS011;5599;52.210;21.046;2022-07-23T11:53:04;7.05;;;6.30;;
11090;SDS011;5599;52.210;21.046;2022-07-23T11:55:33;7.32;;;6.05;;
11090;SDS011;5599;52.210;21.046;2022-07-23T11:58:04;10.90;;;6.82;;
11090;SDS011;5599;52.210;21.046;2022-07-23T12:00:34;6.95;;;6.35;;
11090;SDS011;5599;52.210;21.046;2022-07-23T12:03:06;7.53;;;6.28;;
11090;SDS011;5599;52.210;21.046;2022-07-23T12:05:37;6.55;;;5.95;;
11090;SDS011;5599;52.210;21.046;2022-07-23T12:08:08;7.18;;;6.45;;
11090;SDS011;5599;52.210;21.046;2022-07-23T12:10:39;7.63;;;7.03;;
11090;SDS011;5599;52.210;21.046;2022-07-23T12:13:12;7.18;;;6.35;;
11090;SDS011;5599;52.210;21.046;2022-07-23T12:15:46;7.47;;;5.45;;
11090;SDS011;5599;52.210;21.046;2022-07-23T12:18:17;6.90;;;6.18;;
11090;SDS011;5599;52.210;21.046;2022-07-23T12:20:49;7.50;;;6.70;;
11090;SDS011;5599;52.210;21.046;2022-07-23T12:23:20;7.03;;;6.40;;
11090;SDS011;5599;52.210;21.046;2022-07-23T12:25:50;7.00;;;6.30;;
11090;SDS011;5599;52.210;21.046;2022-07-23T12:28:27;6.20;;;5.70;;
11090;SDS011;5599;52.210;21.046;2022-07-23T12:30:58;6.43;;;5.82;;
11090;SDS011;5599;52.210;21.046;2022-07-23T12:33:29;7.10;;;6.50;;
11090;SDS011;5599;52.210;21.046;2022-07-23T12:36:00;6.28;;;5.78;;
11090;SDS011;5599;52.210;21.046;2022-07-23T12:38:36;7.53;;;6.57;;
11090;SDS011;5599;52.210;21.046;2022-07-23T12:41:07;7.28;;;5.80;;
11090;SDS011;5599;52.210;21.046;2022-07-23T12:43:38;6.80;;;6.10;;
11090;SDS011;5599;52.210;21.046;2022-07-23T12:46:10;8.63;;;6.40;;
11090;SDS011;5599;52.210;21.046;2022-07-23T12:48:49;9.18;;;6.25;;
11090;SDS011;5599;52.210;21.046;2022-07-23T12:51:20;7.05;;;5.95;;
11090;SDS011;5599;52.210;21.046;2022-07-23T12:53:52;9.38;;;6.22;;
11090;SDS011;5599;52.210;21.046;2022-07-23T12:56:27;7.25;;;6.32;;
11090;SDS011;5599;52.210;21.046;2022-07-23T12:58:59;8.75;;;6.53;;
11090;SDS011;5599;52.210;21.046;2022-07-23T13:01:35;8.98;;;6.40;;
11090;SDS011;5599;52.210;21.046;2022-07-23T13:04:06;8.18;;;6.18;;
11090;SDS011;5599;52.210;21.046;2022-07-23T13:06:40;6.65;;;6.15;;
11090;SDS011;5599;52.210;21.046;2022-07-23T13:09:11;8.50;;;6.80;;
11090;SDS011;5599;52.210;21.046;2022-07-23T13:11:42;7.10;;;6.43;;
11090;SDS011;5599;52.210;21.046;2022-07-23T13:14:15;7.80;;;7.10;;
11090;SDS011;5599;52.210;21.046;2022-07-23T13:16:47;9.82;;;7.00;;
11090;SDS011;5599;52.210;21.046;2022-07-23T13:19:18;8.80;;;6.65;;
11090;SDS011;5599;52.210;21.046;2022-07-23T13:21:51;7.57;;;6.10;;
11090;SDS011;5599;52.210;21.046;2022-07-23T13:24:20;7.43;;;6.82;;
11090;SDS011;5599;52.210;21.046;2022-07-23T13:26:50;8.05;;;6.13;;
11090;SDS011;5599;52.210;21.046;2022-07-23T13:29:20;7.00;;;6.40;;
11090;SDS011;5599;52.210;21.046;2022-07-23T13:31:50;7.65;;;6.88;;
11090;SDS011;5599;52.210;21.046;2022-07-23T13:34:19;7.43;;;6.53;;
11090;SDS011;5599;52.210;21.046;2022-07-23T13:36:48;7.05;;;6.32;;
11090;SDS011;5599;52.210;21.046;2022-07-23T13:39:17;6.82;;;6.22;;
11090;SDS011;5599;52.210;21.046;2022-07-23T13:41:46;7.47;;;6.88;;
11090;SDS011;5599;52.210;21.046;2022-07-23T13:44:17;7.10;;;6.47;;
11090;SDS011;5599;52.210;21.046;2022-07-23T13:46:50;6.85;;;6.15;;
11090;SDS011;5599;52.210;21.046;2022-07-23T13:49:19;6.57;;;6.07;;
11090;SDS011;5599;52.210;21.046;2022-07-23T13:51:48;7.50;;;6.78;;
11090;SDS011;5599;52.210;21.046;2022-07-23T13:54:18;6.88;;;6.38;;
11090;SDS011;5599;52.210;21.046;2022-07-23T13:56:48;26.85;;;8.40;;
11090;SDS011;5599;52.210;21.046;2022-07-23T13:59:20;6.45;;;5.90;;
11090;SDS011;5599;52.210;21.046;2022-07-23T14:01:54;8.85;;;8.05;;
11090;SDS011;5599;52.210;21.046;2022-07-23T14:04:43;7.90;;;6.63;;
11090;SDS011;5599;52.210;21.046;2022-07-23T14:07:12;11.13;;;6.70;;
11090;SDS011;5599;52.210;21.046;2022-07-23T14:09:43;10.55;;;6.90;;
11090;SDS011;5599;52.210;21.046;2022-07-23T14:12:12;8.85;;;7.00;;
11090;SDS011;5599;52.210;21.046;2022-07-23T14:14:43;7.28;;;6.60;;
11090;SDS011;5599;52.210;21.046;2022-07-23T14:17:15;7.22;;;6.53;;
11090;SDS011;5599;52.210;21.046;2022-07-23T14:19:44;7.50;;;6.50;;
11090;SDS011;5599;52.210;21.046;2022-07-23T14:22:14;7.38;;;6.68;;
11090;SDS011;5599;52.210;21.046;2022-07-23T14:24:47;9.15;;;7.25;;
11090;SDS011;5599;52.210;21.046;2022-07-23T14:27:16;7.25;;;6.63;;
11090;SDS011;5599;52.210;21.046;2022-07-23T14:29:47;7.35;;;6.65;;
11090;SDS011;5599;52.210;21.046;2022-07-23T14:32:18;7.07;;;6.55;;
11090;SDS011;5599;52.210;21.046;2022-07-23T14:34:47;6.70;;;6.13;;
11090;SDS011;5599;52.210;21.046;2022-07-23T14:37:17;8.75;;;6.45;;
11090;SDS011;5599;52.210;21.046;2022-07-23T14:39:47;6.95;;;6.40;;
11090;SDS011;5599;52.210;21.046;2022-07-23T14:42:16;7.07;;;6.47;;
11090;SDS011;5599;52.210;21.046;2022-07-23T14:44:46;29.77;;;7.20;;
11090;SDS011;5599;52.210;21.046;2022-07-23T14:47:17;34.83;;;7.75;;
11090;SDS011;5599;52.210;21.046;2022-07-23T14:49:47;36.15;;;7.25;;
11090;SDS011;5599;52.210;21.046;2022-07-23T14:52:18;33.30;;;7.57;;
11090;SDS011;5599;52.210;21.046;2022-07-23T14:54:47;24.85;;;6.97;;
11090;SDS011;5599;52.210;21.046;2022-07-23T14:57:16;15.40;;;6.90;;
11090;SDS011;5599;52.210;21.046;2022-07-23T14:59:53;16.65;;;6.38;;
11090;SDS011;5599;52.210;21.046;2022-07-23T15:02:23;18.50;;;6.43;;
11090;SDS011;5599;52.210;21.046;2022-07-23T15:04:53;11.52;;;6.07;;
11090;SDS011;5599;52.210;21.046;2022-07-23T15:07:25;9.55;;;5.45;;
11090;SDS011;5599;52.210;21.046;2022-07-23T15:09:56;6.80;;;4.80;;
11090;SDS011;5599;52.210;21.046;2022-07-23T15:12:28;8.15;;;5.45;;
11090;SDS011;5599;52.210;21.046;2022-07-23T15:14:59;8.20;;;5.45;;
11090;SDS011;5599;52.210;21.046;2022-07-23T15:17:38;8.32;;;5.30;;
11090;SDS011;5599;52.210;21.046;2022-07-23T15:20:12;7.65;;;5.63;;
11090;SDS011;5599;52.210;21.046;2022-07-23T15:23:02;6.68;;;6.03;;
11090;SDS011;5599;52.210;21.046;2022-07-23T15:25:34;6.45;;;5.82;;